sensor_id;sensor_type;location;lat;lon;timestamp;P1;durP1;ratioP1;P2;durP2;ratioP2
74577;SDS011;63173;49.086;33.418;2023-07-29T03:03:50;5.57;;;2.50;;
74577;SDS011;63173;49.086;33.418;2023-07-29T03:06:16;5.00;;;2.53;;
74577;SDS011;63173;49.086;33.418;2023-07-29T03:08:41;5.00;;;2.50;;
74577;SDS011;63173;49.086;33.418;2023-07-29T03:11:12;6.15;;;2.63;;
74577;SDS011;63173;49.086;33.418;2023-07-29T03:13:39;4.05;;;2.35;;
74577;SDS011;63173;49.086;33.418;2023-07-29T03:16:08;7.80;;;2.50;;
74577;SDS011;63173;49.086;33.418;2023-07-29T03:18:34;8.27;;;2.58;;
74577;SDS011;63173;49.086;33.418;2023-07-29T03:20:59;5.97;;;2.50;;
74577;SDS011;63173;49.086;33.418;2023-07-29T03:23:25;4.75;;;2.10;;
74577;SDS011;63173;49.086;33.418;2023-07-29T03:25:51;6.05;;;2.40;;
74577;SDS011;63173;49.086;33.418;2023-07-29T03:28:18;5.50;;;2.50;;
74577;SDS011;63173;49.086;33.418;2023-07-29T03:30:43;8.10;;;2.75;;
74577;SDS011;63173;49.086;33.418;2023-07-29T03:33:09;4.57;;;2.60;;
74577;SDS011;63173;49.086;33.418;2023-07-29T03:35:34;5.57;;;2.38;;
74577;SDS011;63173;49.086;33.418;2023-07-29T03:37:59;8.13;;;2.75;;
74577;SDS011;63173;49.086;33.418;2023-07-29T03:40:25;6.82;;;2.47;;
74577;SDS011;63173;49.086;33.418;2023-07-29T03:42:50;5.10;;;2.30;;
74577;SDS011;63173;49.086;33.418;2023-07-29T03:45:16;4.20;;;2.22;;
74577;SDS011;63173;49.086;33.418;2023-07-29T03:47:41;5.32;;;2.58;;
74577;SDS011;63173;49.086;33.418;2023-07-29T03:50:06;6.10;;;2.42;;
74577;SDS011;63173;49.086;33.418;2023-07-29T03:52:32;4.05;;;2.25;;
74577;SDS011;63173;49.086;33.418;2023-07-29T03:54:58;3.22;;;2.10;;
74577;SDS011;63173;49.086;33.418;2023-07-29T03:57:23;5.28;;;2.30;;
74577;SDS011;63173;49.086;33.418;2023-07-29T03:59:49;3.65;;;2.00;;
74577;SDS011;63173;49.086;33.418;2023-07-29T04:02:14;6.35;;;2.10;;
74577;SDS011;63173;49.086;33.418;2023-07-29T04:04:39;4.97;;;2.20;;
74577;SDS011;63173;49.086;33.418;2023-07-29T04:07:07;4.95;;;2.10;;
74577;SDS011;63173;49.086;33.418;2023-07-29T04:09:35;5.53;;;2.15;;
74577;SDS011;63173;49.086;33.418;2023-07-29T04:12:01;6.80;;;2.42;;
74577;SDS011;63173;49.086;33.418;2023-07-29T04:14:27;3.72;;;1.80;;
74577;SDS011;63173;49.086;33.418;2023-07-29T04:16:52;3.53;;;1.95;;
74577;SDS011;63173;49.086;33.418;2023-07-29T04:19:17;6.35;;;2.03;;
74577;SDS011;63173;49.086;33.418;2023-07-29T04:21:43;4.10;;;2.20;;
74577;SDS011;63173;49.086;33.418;2023-07-29T04:24:08;3.40;;;1.80;;
74577;SDS011;63173;49.086;33.418;2023-07-29T04:26:33;4.70;;;1.77;;
74577;SDS011;63173;49.086;33.418;2023-07-29T04:28:59;5.72;;;1.85;;
74577;SDS011;63173;49.086;33.418;2023-07-29T04:31:24;5.82;;;2.03;;
74577;SDS011;63173;49.086;33.418;2023-07-29T04:33:50;6.18;;;1.80;;
74577;SDS011;63173;49.086;33.418;2023-07-29T04:36:15;4.85;;;1.83;;
74577;SDS011;63173;49.086;33.418;2023-07-29T04:38:41;5.07;;;1.90;;
74577;SDS011;63173;49.086;33.418;2023-07-29T04:41:06;3.75;;;1.77;;
74577;SDS011;63173;49.086;33.418;2023-07-29T04:43:33;4.82;;;1.88;;
74577;SDS011;63173;49.086;33.418;2023-07-29T04:45:59;5.45;;;1.80;;
74577;SDS011;63173;49.086;33.418;2023-07-29T04:48:24;4.60;;;1.65;;
74577;SDS011;63173;49.086;33.418;2023-07-29T04:50:50;3.08;;;1.80;;
74577;SDS011;63173;49.086;33.418;2023-07-29T04:53:15;2.08;;;1.50;;
74577;SDS011;63173;49.086;33.418;2023-07-29T04:55:41;4.25;;;1.70;;
74577;SDS011;63173;49.086;33.418;2023-07-29T04:58:08;3.30;;;1.70;;
74577;SDS011;63173;49.086;33.418;2023-07-29T05:00:33;3.55;;;1.60;;
74577;SDS011;63173;49.086;33.418;2023-07-29T05:02:59;2.28;;;1.55;;
74577;SDS011;63173;49.086;33.418;2023-07-29T05:05:24;3.25;;;2.15;;
74577;SDS011;63173;49.086;33.418;2023-07-29T05:07:49;3.78;;;1.88;;
74577;SDS011;63173;49.086;33.418;2023-07-29T05:10:15;3.33;;;1.70;;
74577;SDS011;63173;49.086;33.418;2023-07-29T05:12:40;3.03;;;1.52;;
74577;SDS011;63173;49.086;33.418;2023-07-29T05:15:06;2.60;;;1.70;;
74577;SDS011;63173;49.086;33.418;2023-07-29T05:17:32;2.63;;;1.70;;
74577;SDS011;63173;49.086;33.418;2023-07-29T05:19:57;4.25;;;1.90;;
74577;SDS011;63173;49.086;33.418;2023-07-29T05:22:23;3.90;;;1.77;;
74577;SDS011;63173;49.086;33.418;2023-07-29T05:24:48;3.70;;;1.90;;
74577;SDS011;63173;49.086;33.418;2023-07-29T05:27:13;4.60;;;1.70;;
74577;SDS011;63173;49.086;33.418;2023-07-29T05:29:39;3.28;;;1.65;;
74577;SDS011;63173;49.086;33.418;2023-07-29T05:32:04;2.40;;;1.60;;
74577;SDS011;63173;49.086;33.418;2023-07-29T05:34:30;4.05;;;1.60;;
74577;SDS011;63173;49.086;33.418;2023-07-29T05:36:55;2.85;;;1.30;;
74577;SDS011;63173;49.086;33.418;2023-07-29T05:39:21;3.60;;;1.45;;
74577;SDS011;63173;49.086;33.418;2023-07-29T05:41:46;2.63;;;1.60;;
74577;SDS011;63173;49.086;33.418;2023-07-29T05:44:12;6.32;;;1.80;;
74577;SDS011;63173;49.086;33.418;2023-07-29T05:46:38;3.83;;;1.70;;
74577;SDS011;63173;49.086;33.418;2023-07-29T05:49:03;3.30;;;2.03;;
74577;SDS011;63173;49.086;33.418;2023-07-29T05:51:28;2.42;;;1.52;;
74577;SDS011;63173;49.086;33.418;2023-07-29T05:53:54;3.53;;;1.55;;
74577;SDS011;63173;49.086;33.418;2023-07-29T05:56:19;3.42;;;1.65;;
74577;SDS011;63173;49.086;33.418;2023-07-29T05:58:45;4.72;;;1.70;;
74577;SDS011;63173;49.086;33.418;2023-07-29T06:01:11;3.85;;;1.70;;
74577;SDS011;63173;49.086;33.418;2023-07-29T06:03:37;5.07;;;1.60;;
74577;SDS011;63173;49.086;33.418;2023-07-29T06:06:02;4.07;;;1.60;;
74577;SDS011;63173;49.086;33.418;2023-07-29T06:08:28;5.13;;;2.03;;
74577;SDS011;63173;49.086;33.418;2023-07-29T06:10:54;4.30;;;1.60;;
74577;SDS011;63173;49.086;33.418;2023-07-29T06:13:19;5.80;;;2.10;;
74577;SDS011;63173;49.086;33.418;2023-07-29T06:15:45;3.50;;;1.50;;
74577;SDS011;63173;49.086;33.418;2023-07-29T06:18:10;5.43;;;1.90;;
74577;SDS011;63173;49.086;33.418;2023-07-29T06:20:35;4.32;;;1.45;;
74577;SDS011;63173;49.086;33.418;2023-07-29T06:23:01;3.33;;;1.40;;
74577;SDS011;63173;49.086;33.418;2023-07-29T06:25:27;4.15;;;1.50;;
74577;SDS011;63173;49.086;33.418;2023-07-29T06:27:52;3.20;;;1.50;;
74577;SDS011;63173;49.086;33.418;2023-07-29T06:30:18;2.45;;;1.40;;
74577;SDS011;63173;49.086;33.418;2023-07-29T06:32:43;3.25;;;1.30;;
74577;SDS011;63173;49.086;33.418;2023-07-29T06:35:09;2.95;;;1.73;;
74577;SDS011;63173;49.086;33.418;2023-07-29T06:37:34;3.20;;;1.45;;
74577;SDS011;63173;49.086;33.418;2023-07-29T06:40:00;5.13;;;1.50;;
74577;SDS011;63173;49.086;33.418;2023-07-29T06:42:25;2.58;;;1.60;;
74577;SDS011;63173;49.086;33.418;2023-07-29T06:44:50;2.85;;;1.40;;
74577;SDS011;63173;49.086;33.418;2023-07-29T06:47:16;6.55;;;1.80;;
74577;SDS011;63173;49.086;33.418;2023-07-29T06:49:41;2.95;;;1.73;;
74577;SDS011;63173;49.086;33.418;2023-07-29T06:52:07;3.15;;;1.50;;
74577;SDS011;63173;49.086;33.418;2023-07-29T06:54:32;3.38;;;1.60;;
74577;SDS011;63173;49.086;33.418;2023-07-29T06:56:58;3.70;;;1.63;;
74577;SDS011;63173;49.086;33.418;2023-07-29T06:59:23;3.67;;;1.70;;
74577;SDS011;63173;49.086;33.418;2023-07-29T07:01:49;2.50;;;1.63;;
74577;SDS011;63173;49.086;33.418;2023-07-29T07:04:15;3.80;;;1.50;;
74577;SDS011;63173;49.086;33.418;2023-07-29T07:06:40;4.32;;;1.83;;
74577;SDS011;63173;49.086;33.418;2023-07-29T07:09:06;3.60;;;2.00;;
74577;SDS011;63173;49.086;33.418;2023-07-29T07:11:31;8.07;;;2.47;;
74577;SDS011;63173;49.086;33.418;2023-07-29T07:13:57;5.35;;;2.30;;
74577;SDS011;63173;49.086;33.418;2023-07-29T07:16:22;5.15;;;1.90;;
74577;SDS011;63173;49.086;33.418;2023-07-29T07:18:48;3.58;;;2.00;;
74577;SDS011;63173;49.086;33.418;2023-07-29T07:21:13;9.07;;;3.38;;
74577;SDS011;63173;49.086;33.418;2023-07-29T07:23:39;6.95;;;3.30;;
74577;SDS011;63173;49.086;33.418;2023-07-29T07:26:04;5.35;;;2.72;;
74577;SDS011;63173;49.086;33.418;2023-07-29T07:28:30;8.45;;;3.70;;
74577;SDS011;63173;49.086;33.418;2023-07-29T07:30:55;7.25;;;4.10;;
74577;SDS011;63173;49.086;33.418;2023-07-29T07:33:21;6.95;;;3.20;;
74577;SDS011;63173;49.086;33.418;2023-07-29T07:35:47;11.10;;;3.90;;
74577;SDS011;63173;49.086;33.418;2023-07-29T07:38:13;7.15;;;4.07;;
74577;SDS011;63173;49.086;33.418;2023-07-29T07:40:38;7.40;;;3.88;;
74577;SDS011;63173;49.086;33.418;2023-07-29T07:43:03;8.07;;;4.05;;
74577;SDS011;63173;49.086;33.418;2023-07-29T07:45:29;6.60;;;3.10;;
74577;SDS011;63173;49.086;33.418;2023-07-29T07:47:55;6.00;;;3.10;;
74577;SDS011;63173;49.086;33.418;2023-07-29T07:50:21;7.78;;;3.42;;
74577;SDS011;63173;49.086;33.418;2023-07-29T07:52:49;9.82;;;3.60;;
74577;SDS011;63173;49.086;33.418;2023-07-29T07:55:15;5.63;;;2.90;;
74577;SDS011;63173;49.086;33.418;2023-07-29T07:57:40;3.67;;;2.25;;
74577;SDS011;63173;49.086;33.418;2023-07-29T08:00:06;5.10;;;2.67;;
74577;SDS011;63173;49.086;33.418;2023-07-29T08:02:32;6.15;;;2.75;;
74577;SDS011;63173;49.086;33.418;2023-07-29T08:04:57;9.50;;;3.03;;
74577;SDS011;63173;49.086;33.418;2023-07-29T08:07:23;5.88;;;2.55;;
74577;SDS011;63173;49.086;33.418;2023-07-29T08:09:48;8.93;;;2.40;;
74577;SDS011;63173;49.086;33.418;2023-07-29T08:12:14;10.80;;;2.65;;
74577;SDS011;63173;49.086;33.418;2023-07-29T08:14:39;4.50;;;2.00;;
74577;SDS011;63173;49.086;33.418;2023-07-29T08:17:04;4.57;;;2.65;;
74577;SDS011;63173;49.086;33.418;2023-07-29T08:19:30;5.57;;;2.80;;
74577;SDS011;63173;49.086;33.418;2023-07-29T08:21:55;5.07;;;2.83;;
74577;SDS011;63173;49.086;33.418;2023-07-29T08:24:21;5.82;;;2.83;;
74577;SDS011;63173;49.086;33.418;2023-07-29T08:26:46;8.05;;;2.60;;
74577;SDS011;63173;49.086;33.418;2023-07-29T08:29:11;6.35;;;2.88;;
74577;SDS011;63173;49.086;33.418;2023-07-29T08:31:37;6.70;;;3.70;;
74577;SDS011;63173;49.086;33.418;2023-07-29T08:34:03;7.18;;;3.08;;
74577;SDS011;63173;49.086;33.418;2023-07-29T08:36:29;5.22;;;2.92;;
74577;SDS011;63173;49.086;33.418;2023-07-29T08:38:54;7.90;;;3.20;;
74577;SDS011;63173;49.086;33.418;2023-07-29T08:41:28;4.55;;;3.05;;
74577;SDS011;63173;49.086;33.418;2023-07-29T08:46:45;8.38;;;2.83;;
74577;SDS011;63173;49.086;33.418;2023-07-29T08:49:11;9.55;;;3.67;;
74577;SDS011;63173;49.086;33.418;2023-07-29T08:51:44;14.68;;;4.20;;
74577;SDS011;63173;49.086;33.418;2023-07-29T08:54:11;8.27;;;4.50;;
74577;SDS011;63173;49.086;33.418;2023-07-29T08:56:37;7.68;;;5.03;;
74577;SDS011;63173;49.086;33.418;2023-07-29T08:59:03;9.43;;;5.57;;
74577;SDS011;63173;49.086;33.418;2023-07-29T09:01:30;8.55;;;5.50;;
74577;SDS011;63173;49.086;33.418;2023-07-29T09:03:55;9.20;;;4.55;;
74577;SDS011;63173;49.086;33.418;2023-07-29T09:06:21;10.23;;;5.20;;
74577;SDS011;63173;49.086;33.418;2023-07-29T09:08:49;11.73;;;5.72;;
74577;SDS011;63173;49.086;33.418;2023-07-29T09:11:18;9.73;;;4.93;;
74577;SDS011;63173;49.086;33.418;2023-07-29T09:13:44;10.98;;;4.88;;
74577;SDS011;63173;49.086;33.418;2023-07-29T09:16:09;8.77;;;4.70;;
74577;SDS011;63173;49.086;33.418;2023-07-29T09:18:35;6.07;;;3.80;;
74577;SDS011;63173;49.086;33.418;2023-07-29T09:21:00;6.80;;;3.55;;
74577;SDS011;63173;49.086;33.418;2023-07-29T09:23:26;6.00;;;3.70;;
74577;SDS011;63173;49.086;33.418;2023-07-29T09:26:01;9.80;;;4.20;;
74577;SDS011;63173;49.086;33.418;2023-07-29T09:28:28;11.38;;;4.90;;
74577;SDS011;63173;49.086;33.418;2023-07-29T09:30:58;10.13;;;4.80;;
74577;SDS011;63173;49.086;33.418;2023-07-29T09:33:25;10.35;;;5.35;;
74577;SDS011;63173;49.086;33.418;2023-07-29T09:35:51;13.18;;;4.20;;
74577;SDS011;63173;49.086;33.418;2023-07-29T09:38:17;9.85;;;5.90;;
74577;SDS011;63173;49.086;33.418;2023-07-29T09:40:42;10.55;;;6.70;;
74577;SDS011;63173;49.086;33.418;2023-07-29T09:43:10;12.02;;;6.78;;
74577;SDS011;63173;49.086;33.418;2023-07-29T09:45:36;7.47;;;4.80;;
74577;SDS011;63173;49.086;33.418;2023-07-29T09:48:03;7.50;;;4.65;;
74577;SDS011;63173;49.086;33.418;2023-07-29T09:50:35;8.18;;;4.45;;
74577;SDS011;63173;49.086;33.418;2023-07-29T09:53:01;8.70;;;3.90;;
74577;SDS011;63173;49.086;33.418;2023-07-29T09:55:28;6.10;;;2.80;;
74577;SDS011;63173;49.086;33.418;2023-07-29T09:57:58;4.90;;;2.88;;
74577;SDS011;63173;49.086;33.418;2023-07-29T10:00:29;4.57;;;2.75;;
74577;SDS011;63173;49.086;33.418;2023-07-29T10:02:57;4.40;;;2.42;;
74577;SDS011;63173;49.086;33.418;2023-07-29T10:05:23;6.32;;;2.70;;
74577;SDS011;63173;49.086;33.418;2023-07-29T10:07:50;5.60;;;2.92;;
74577;SDS011;63173;49.086;33.418;2023-07-29T10:10:16;3.65;;;2.80;;
74577;SDS011;63173;49.086;33.418;2023-07-29T10:12:42;2.35;;;1.45;;
74577;SDS011;63173;49.086;33.418;2023-07-29T10:15:08;2.90;;;1.98;;
74577;SDS011;63173;49.086;33.418;2023-07-29T10:17:35;3.38;;;2.20;;
74577;SDS011;63173;49.086;33.418;2023-07-29T10:20:03;5.07;;;2.08;;
74577;SDS011;63173;49.086;33.418;2023-07-29T10:22:35;6.28;;;2.30;;
74577;SDS011;63173;49.086;33.418;2023-07-29T10:25:04;5.07;;;2.53;;
74577;SDS011;63173;49.086;33.418;2023-07-29T10:27:35;4.85;;;1.83;;
74577;SDS011;63173;49.086;33.418;2023-07-29T10:30:09;4.05;;;2.22;;
74577;SDS011;63173;49.086;33.418;2023-07-29T10:32:37;6.25;;;2.30;;
74577;SDS011;63173;49.086;33.418;2023-07-29T10:35:03;5.15;;;2.40;;
74577;SDS011;63173;49.086;33.418;2023-07-29T10:37:29;6.18;;;3.00;;
74577;SDS011;63173;49.086;33.418;2023-07-29T10:39:55;6.22;;;3.25;;
74577;SDS011;63173;49.086;33.418;2023-07-29T10:42:21;5.45;;;3.40;;
74577;SDS011;63173;49.086;33.418;2023-07-29T10:44:47;4.40;;;3.08;;
74577;SDS011;63173;49.086;33.418;2023-07-29T10:47:28;10.63;;;2.25;;
74577;SDS011;63173;49.086;33.418;2023-07-29T10:49:55;5.03;;;2.55;;
74577;SDS011;63173;49.086;33.418;2023-07-29T10:52:29;4.30;;;2.63;;
74577;SDS011;63173;49.086;33.418;2023-07-29T10:55:00;6.32;;;2.92;;
74577;SDS011;63173;49.086;33.418;2023-07-29T10:57:31;6.18;;;3.42;;
74577;SDS011;63173;49.086;33.418;2023-07-29T10:59:58;5.57;;;3.65;;
74577;SDS011;63173;49.086;33.418;2023-07-29T11:02:30;5.65;;;3.20;;
74577;SDS011;63173;49.086;33.418;2023-07-29T11:04:58;4.32;;;2.38;;
74577;SDS011;63173;49.086;33.418;2023-07-29T11:07:25;5.47;;;2.63;;
74577;SDS011;63173;49.086;33.418;2023-07-29T11:09:55;6.63;;;3.40;;
74577;SDS011;63173;49.086;33.418;2023-07-29T11:12:41;7.00;;;3.30;;
74577;SDS011;63173;49.086;33.418;2023-07-29T11:17:50;5.00;;;2.75;;
74577;SDS011;63173;49.086;33.418;2023-07-29T11:20:17;6.22;;;3.22;;
74577;SDS011;63173;49.086;33.418;2023-07-29T11:22:43;6.95;;;4.20;;
74577;SDS011;63173;49.086;33.418;2023-07-29T11:25:14;5.43;;;3.58;;
74577;SDS011;63173;49.086;33.418;2023-07-29T11:27:41;9.50;;;3.40;;
74577;SDS011;63173;49.086;33.418;2023-07-29T11:30:07;5.20;;;3.78;;
74577;SDS011;63173;49.086;33.418;2023-07-29T11:32:37;6.63;;;3.65;;
74577;SDS011;63173;49.086;33.418;2023-07-29T11:35:04;7.32;;;3.60;;
74577;SDS011;63173;49.086;33.418;2023-07-29T11:37:32;5.78;;;3.60;;
74577;SDS011;63173;49.086;33.418;2023-07-29T11:39:58;4.80;;;3.88;;
74577;SDS011;63173;49.086;33.418;2023-07-29T11:42:24;6.70;;;4.15;;
74577;SDS011;63173;49.086;33.418;2023-07-29T11:44:51;10.32;;;3.70;;
74577;SDS011;63173;49.086;33.418;2023-07-29T11:47:16;5.50;;;3.55;;
74577;SDS011;63173;49.086;33.418;2023-07-29T11:49:41;9.07;;;4.47;;
74577;SDS011;63173;49.086;33.418;2023-07-29T11:52:07;9.30;;;4.18;;
74577;SDS011;63173;49.086;33.418;2023-07-29T11:54:37;3.78;;;2.25;;
74577;SDS011;63173;49.086;33.418;2023-07-29T11:57:04;3.33;;;2.65;;
74577;SDS011;63173;49.086;33.418;2023-07-29T11:59:33;4.03;;;1.73;;
74577;SDS011;63173;49.086;33.418;2023-07-29T12:02:06;4.00;;;2.60;;
74577;SDS011;63173;49.086;33.418;2023-07-29T12:04:43;4.45;;;3.03;;
74577;SDS011;63173;49.086;33.418;2023-07-29T12:07:11;6.22;;;2.90;;
74577;SDS011;63173;49.086;33.418;2023-07-29T12:09:39;5.10;;;2.20;;
74577;SDS011;63173;49.086;33.418;2023-07-29T12:12:05;4.93;;;2.65;;
74577;SDS011;63173;49.086;33.418;2023-07-29T12:14:32;6.32;;;3.10;;
74577;SDS011;63173;49.086;33.418;2023-07-29T12:17:01;9.88;;;3.50;;
74577;SDS011;63173;49.086;33.418;2023-07-29T12:19:34;5.38;;;3.40;;
74577;SDS011;63173;49.086;33.418;2023-07-29T12:22:01;6.07;;;3.78;;
74577;SDS011;63173;49.086;33.418;2023-07-29T12:24:32;7.28;;;3.38;;
74577;SDS011;63173;49.086;33.418;2023-07-29T12:26:58;10.13;;;4.03;;
74577;SDS011;63173;49.086;33.418;2023-07-29T12:29:24;7.07;;;2.67;;
74577;SDS011;63173;49.086;33.418;2023-07-29T12:31:56;3.22;;;2.20;;
74577;SDS011;63173;49.086;33.418;2023-07-29T12:34:28;8.80;;;3.30;;
74577;SDS011;63173;49.086;33.418;2023-07-29T12:36:56;6.18;;;3.45;;
74577;SDS011;63173;49.086;33.418;2023-07-29T12:39:27;7.22;;;3.90;;
74577;SDS011;63173;49.086;33.418;2023-07-29T12:41:55;4.22;;;2.97;;
74577;SDS011;63173;49.086;33.418;2023-07-29T12:44:23;4.10;;;2.58;;
74577;SDS011;63173;49.086;33.418;2023-07-29T12:46:52;5.13;;;3.03;;
74577;SDS011;63173;49.086;33.418;2023-07-29T12:49:17;4.75;;;3.75;;
74577;SDS011;63173;49.086;33.418;2023-07-29T12:51:43;5.70;;;3.60;;
74577;SDS011;63173;49.086;33.418;2023-07-29T12:54:08;7.18;;;3.47;;
74577;SDS011;63173;49.086;33.418;2023-07-29T12:56:34;6.07;;;2.80;;
74577;SDS011;63173;49.086;33.418;2023-07-29T12:59:00;4.28;;;2.50;;
74577;SDS011;63173;49.086;33.418;2023-07-29T13:01:26;5.53;;;3.22;;
74577;SDS011;63173;49.086;33.418;2023-07-29T13:03:52;4.30;;;3.30;;
74577;SDS011;63173;49.086;33.418;2023-07-29T13:06:18;4.93;;;3.22;;
74577;SDS011;63173;49.086;33.418;2023-07-29T13:08:44;6.57;;;3.25;;
74577;SDS011;63173;49.086;33.418;2023-07-29T13:11:09;5.22;;;3.47;;
74577;SDS011;63173;49.086;33.418;2023-07-29T13:13:35;7.88;;;3.40;;
74577;SDS011;63173;49.086;33.418;2023-07-29T13:16:01;3.92;;;3.30;;
74577;SDS011;63173;49.086;33.418;2023-07-29T13:18:26;3.92;;;3.17;;
74577;SDS011;63173;49.086;33.418;2023-07-29T13:20:52;7.32;;;3.50;;
74577;SDS011;63173;49.086;33.418;2023-07-29T13:23:17;5.38;;;3.60;;
74577;SDS011;63173;49.086;33.418;2023-07-29T13:25:43;4.97;;;3.20;;
74577;SDS011;63173;49.086;33.418;2023-07-29T13:28:09;5.65;;;2.60;;
74577;SDS011;63173;49.086;33.418;2023-07-29T13:30:35;4.22;;;3.28;;
74577;SDS011;63173;49.086;33.418;2023-07-29T13:33:01;7.18;;;4.05;;
74577;SDS011;63173;49.086;33.418;2023-07-29T13:35:27;4.40;;;2.70;;
74577;SDS011;63173;49.086;33.418;2023-07-29T13:37:53;11.10;;;6.07;;
74577;SDS011;63173;49.086;33.418;2023-07-29T13:40:18;10.90;;;6.63;;
74577;SDS011;63173;49.086;33.418;2023-07-29T13:42:44;3.38;;;2.42;;
74577;SDS011;63173;49.086;33.418;2023-07-29T13:45:09;4.07;;;2.90;;
74577;SDS011;63173;49.086;33.418;2023-07-29T13:47:35;7.50;;;2.60;;
74577;SDS011;63173;49.086;33.418;2023-07-29T13:50:00;4.68;;;2.75;;
74577;SDS011;63173;49.086;33.418;2023-07-29T13:52:26;6.07;;;3.45;;
74577;SDS011;63173;49.086;33.418;2023-07-29T13:54:51;7.28;;;3.55;;
74577;SDS011;63173;49.086;33.418;2023-07-29T13:57:17;5.70;;;2.50;;
74577;SDS011;63173;49.086;33.418;2023-07-29T13:59:42;5.43;;;2.67;;
74577;SDS011;63173;49.086;33.418;2023-07-29T14:02:08;4.47;;;3.50;;
74577;SDS011;63173;49.086;33.418;2023-07-29T14:04:33;4.72;;;3.30;;
74577;SDS011;63173;49.086;33.418;2023-07-29T14:06:59;5.40;;;2.40;;
74577;SDS011;63173;49.086;33.418;2023-07-29T14:09:25;3.60;;;2.00;;
74577;SDS011;63173;49.086;33.418;2023-07-29T14:11:51;2.45;;;1.88;;
74577;SDS011;63173;49.086;33.418;2023-07-29T14:14:16;4.38;;;1.98;;
74577;SDS011;63173;49.086;33.418;2023-07-29T14:16:42;3.63;;;2.00;;
74577;SDS011;63173;49.086;33.418;2023-07-29T14:19:08;2.38;;;1.90;;
74577;SDS011;63173;49.086;33.418;2023-07-29T14:21:33;5.40;;;2.25;;
74577;SDS011;63173;49.086;33.418;2023-07-29T14:23:58;3.50;;;1.95;;
74577;SDS011;63173;49.086;33.418;2023-07-29T14:26:24;4.13;;;2.10;;
74577;SDS011;63173;49.086;33.418;2023-07-29T14:28:49;4.07;;;2.15;;
74577;SDS011;63173;49.086;33.418;2023-07-29T14:31:15;5.30;;;2.53;;
74577;SDS011;63173;49.086;33.418;2023-07-29T14:33:42;6.55;;;2.67;;
74577;SDS011;63173;49.086;33.418;2023-07-29T14:36:08;3.60;;;2.90;;
74577;SDS011;63173;49.086;33.418;2023-07-29T14:38:34;3.78;;;3.00;;
74577;SDS011;63173;49.086;33.418;2023-07-29T14:41:00;8.93;;;3.40;;
74577;SDS011;63173;49.086;33.418;2023-07-29T14:43:26;8.93;;;3.70;;
74577;SDS011;63173;49.086;33.418;2023-07-29T14:45:51;6.05;;;3.70;;
74577;SDS011;63173;49.086;33.418;2023-07-29T14:48:17;7.20;;;3.80;;
74577;SDS011;63173;49.086;33.418;2023-07-29T14:50:42;4.68;;;4.07;;
74577;SDS011;63173;49.086;33.418;2023-07-29T14:53:09;5.75;;;4.20;;
74577;SDS011;63173;49.086;33.418;2023-07-29T14:55:34;6.90;;;3.60;;
74577;SDS011;63173;49.086;33.418;2023-07-29T14:58:00;6.63;;;3.10;;
74577;SDS011;63173;49.086;33.418;2023-07-29T15:00:25;5.45;;;3.88;;
74577;SDS011;63173;49.086;33.418;2023-07-29T15:02:51;5.25;;;3.58;;
74577;SDS011;63173;49.086;33.418;2023-07-29T15:05:16;4.22;;;3.60;;
74577;SDS011;63173;49.086;33.418;2023-07-29T15:07:42;5.30;;;3.58;;
74577;SDS011;63173;49.086;33.418;2023-07-29T15:10:07;7.90;;;3.75;;
74577;SDS011;63173;49.086;33.418;2023-07-29T15:12:33;9.63;;;3.90;;
74577;SDS011;63173;49.086;33.418;2023-07-29T15:14:58;5.30;;;3.40;;
74577;SDS011;63173;49.086;33.418;2023-07-29T15:17:23;7.53;;;3.78;;
74577;SDS011;63173;49.086;33.418;2023-07-29T15:19:49;5.13;;;3.10;;
74577;SDS011;63173;49.086;33.418;2023-07-29T15:22:15;4.82;;;2.90;;
74577;SDS011;63173;49.086;33.418;2023-07-29T15:24:41;6.65;;;2.75;;
74577;SDS011;63173;49.086;33.418;2023-07-29T15:27:08;6.05;;;3.80;;
74577;SDS011;63173;49.086;33.418;2023-07-29T15:29:35;3.75;;;2.47;;
74577;SDS011;63173;49.086;33.418;2023-07-29T15:32:00;3.28;;;2.55;;
74577;SDS011;63173;49.086;33.418;2023-07-29T15:34:26;4.75;;;3.30;;
74577;SDS011;63173;49.086;33.418;2023-07-29T15:36:51;4.72;;;3.10;;
74577;SDS011;63173;49.086;33.418;2023-07-29T15:39:17;6.93;;;3.85;;
74577;SDS011;63173;49.086;33.418;2023-07-29T15:41:42;7.80;;;5.18;;
74577;SDS011;63173;49.086;33.418;2023-07-29T15:44:07;5.38;;;3.58;;
74577;SDS011;63173;49.086;33.418;2023-07-29T15:46:33;3.70;;;2.55;;
74577;SDS011;63173;49.086;33.418;2023-07-29T15:48:58;10.40;;;2.63;;
74577;SDS011;63173;49.086;33.418;2023-07-29T15:51:25;2.35;;;2.03;;
74577;SDS011;63173;49.086;33.418;2023-07-29T15:53:51;2.75;;;2.00;;
74577;SDS011;63173;49.086;33.418;2023-07-29T15:56:17;4.53;;;3.38;;
74577;SDS011;63173;49.086;33.418;2023-07-29T15:58:42;4.18;;;2.58;;
74577;SDS011;63173;49.086;33.418;2023-07-29T16:01:07;4.10;;;2.60;;
74577;SDS011;63173;49.086;33.418;2023-07-29T16:03:33;3.20;;;2.25;;
74577;SDS011;63173;49.086;33.418;2023-07-29T16:05:58;2.67;;;1.70;;
74577;SDS011;63173;49.086;33.418;2023-07-29T16:08:24;4.85;;;1.98;;
74577;SDS011;63173;49.086;33.418;2023-07-29T16:10:50;4.05;;;1.63;;
74577;SDS011;63173;49.086;33.418;2023-07-29T16:13:15;4.05;;;1.83;;
74577;SDS011;63173;49.086;33.418;2023-07-29T16:15:43;4.80;;;2.00;;
74577;SDS011;63173;49.086;33.418;2023-07-29T16:18:08;3.78;;;2.15;;
74577;SDS011;63173;49.086;33.418;2023-07-29T16:20:34;5.50;;;1.83;;
74577;SDS011;63173;49.086;33.418;2023-07-29T16:22:59;4.05;;;2.45;;
74577;SDS011;63173;49.086;33.418;2023-07-29T16:25:25;6.32;;;2.40;;
74577;SDS011;63173;49.086;33.418;2023-07-29T16:27:51;4.57;;;2.20;;
74577;SDS011;63173;49.086;33.418;2023-07-29T16:30:17;3.47;;;1.92;;
74577;SDS011;63173;49.086;33.418;2023-07-29T16:32:43;2.33;;;1.58;;
74577;SDS011;63173;49.086;33.418;2023-07-29T16:35:08;2.75;;;1.70;;
74577;SDS011;63173;49.086;33.418;2023-07-29T16:37:34;3.55;;;1.40;;
74577;SDS011;63173;49.086;33.418;2023-07-29T16:39:59;2.47;;;1.80;;
74577;SDS011;63173;49.086;33.418;2023-07-29T16:42:25;2.92;;;1.40;;
74577;SDS011;63173;49.086;33.418;2023-07-29T16:44:50;4.00;;;1.63;;
74577;SDS011;63173;49.086;33.418;2023-07-29T16:47:16;3.00;;;1.73;;
74577;SDS011;63173;49.086;33.418;2023-07-29T16:49:42;5.32;;;1.60;;
74577;SDS011;63173;49.086;33.418;2023-07-29T16:52:07;4.43;;;1.60;;
74577;SDS011;63173;49.086;33.418;2023-07-29T16:54:33;3.45;;;1.48;;
74577;SDS011;63173;49.086;33.418;2023-07-29T16:56:59;3.83;;;1.73;;
74577;SDS011;63173;49.086;33.418;2023-07-29T16:59:25;4.93;;;2.50;;
74577;SDS011;63173;49.086;33.418;2023-07-29T17:01:50;4.13;;;1.85;;
74577;SDS011;63173;49.086;33.418;2023-07-29T17:04:16;2.95;;;1.63;;
74577;SDS011;63173;49.086;33.418;2023-07-29T17:06:41;3.47;;;2.15;;
74577;SDS011;63173;49.086;33.418;2023-07-29T17:09:06;3.72;;;2.38;;
74577;SDS011;63173;49.086;33.418;2023-07-29T17:11:32;4.43;;;2.45;;
74577;SDS011;63173;49.086;33.418;2023-07-29T17:13:57;5.45;;;2.25;;
74577;SDS011;63173;49.086;33.418;2023-07-29T17:16:23;5.70;;;2.40;;
74577;SDS011;63173;49.086;33.418;2023-07-29T17:18:48;4.15;;;2.63;;
74577;SDS011;63173;49.086;33.418;2023-07-29T17:21:13;4.80;;;2.38;;
74577;SDS011;63173;49.086;33.418;2023-07-29T17:23:39;5.53;;;2.45;;
74577;SDS011;63173;49.086;33.418;2023-07-29T17:26:04;6.50;;;2.38;;
74577;SDS011;63173;49.086;33.418;2023-07-29T17:28:30;2.35;;;2.05;;
74577;SDS011;63173;49.086;33.418;2023-07-29T17:30:55;6.53;;;1.98;;
74577;SDS011;63173;49.086;33.418;2023-07-29T17:33:21;2.58;;;1.80;;
74577;SDS011;63173;49.086;33.418;2023-07-29T17:35:46;4.05;;;1.90;;